Time;durP1;ratioP1;P1;durP2;ratioP2;P2;SDS_P1;SDS_P2;PMS_P1;PMS_P2;Temp;Humidity;BMP_temperature;BMP_pressure;BME280_temperature;BME280_humidity;BME280_pressure;Samples;Min_cycle;Max_cycle;Signal;HPM_P1;HPM_P2
2021/01/11 00:02:23;;;;;;;8.85;5.63;;;;;;;;;;5053653;28;20210;-65
2021/01/11 00:04:50;;;;;;;6.65;4.20;;;;;;;;;;5053038;28;20211;-67
2021/01/11 00:07:17;;;;;;;3.85;3.00;;;;;;;;;;5053617;28;20201;-67
2021/01/11 00:09:43;;;;;;;3.35;2.33;;;;;;;;;;5052788;28;20713;-63
2021/01/11 00:12:09;;;;;;;4.40;2.90;;;;;;;;;;5053479;28;20291;-63
2021/01/11 00:14:36;;;;;;;3.92;2.75;;;;;;;;;;5052727;28;20639;-63
2021/01/11 00:17:03;;;;;;;3.97;3.03;;;;;;;;;;5053228;28;20675;-62
2021/01/11 00:19:29;;;;;;;4.43;2.50;;;;;;;;;;5052775;28;20203;-63
2021/01/11 00:21:56;;;;;;;4.93;3.17;;;;;;;;;;5053472;28;20203;-65
2021/01/11 00:24:22;;;;;;;5.53;3.28;;;;;;;;;;5054482;28;20256;-67
2021/01/11 00:26:52;;;;;;;5.10;3.42;;;;;;;;;;5053789;28;20574;-66
2021/01/11 00:29:19;;;;;;;5.00;3.72;;;;;;;;;;5052782;28;20311;-67
2021/01/11 00:31:45;;;;;;;5.75;3.50;;;;;;;;;;5053278;28;20199;-67
2021/01/11 00:34:11;;;;;;;5.65;3.72;;;;;;;;;;5052520;28;20196;-64
2021/01/11 00:36:39;;;;;;;7.13;3.83;;;;;;;;;;5052688;28;20246;-64
2021/01/11 00:39:05;;;;;;;6.40;3.85;;;;;;;;;;5052514;28;20746;-64
2021/01/11 00:41:32;;;;;;;6.70;3.88;;;;;;;;;;5052776;28;20192;-66
2021/01/11 00:43:58;;;;;;;5.68;3.20;;;;;;;;;;5052740;28;20662;-65
2021/01/11 00:46:25;;;;;;;14.52;6.65;;;;;;;;;;5052212;28;20196;-65
2021/01/11 00:48:54;;;;;;;14.05;6.55;;;;;;;;;;5052654;28;20274;-64
2021/01/11 00:51:21;;;;;;;14.45;7.72;;;;;;;;;;5052481;28;20224;-66
2021/01/11 00:53:47;;;;;;;16.67;7.15;;;;;;;;;;5051074;28;20201;-65
2021/01/11 00:56:15;;;;;;;12.50;6.00;;;;;;;;;;5050562;28;20274;-66
2021/01/11 00:58:42;;;;;;;8.05;5.28;;;;;;;;;;5050556;28;20666;-64
2021/01/11 01:01:12;;;;;;;6.75;4.35;;;;;;;;;;5050900;28;20259;-68
2021/01/11 01:03:39;;;;;;;8.68;4.55;;;;;;;;;;5052274;28;20227;-65
2021/01/11 01:06:07;;;;;;;6.10;3.53;;;;;;;;;;5052088;28;20192;-65
2021/01/11 01:08:33;;;;;;;4.05;2.78;;;;;;;;;;5052395;28;20586;-67
2021/01/11 01:11:00;;;;;;;7.32;3.35;;;;;;;;;;5051668;28;20228;-64
2021/01/11 01:13:26;;;;;;;4.90;2.70;;;;;;;;;;5052094;28;20234;-63
2021/01/11 01:15:52;;;;;;;6.63;2.90;;;;;;;;;;5051538;28;20232;-64
2021/01/11 01:18:18;;;;;;;4.25;2.70;;;;;;;;;;5052363;28;20429;-67
2021/01/11 01:20:45;;;;;;;4.40;2.63;;;;;;;;;;5051718;28;20195;-64
2021/01/11 01:23:11;;;;;;;4.65;2.47;;;;;;;;;;5052083;28;20698;-65
2021/01/11 01:25:37;;;;;;;4.80;2.63;;;;;;;;;;5051608;28;20686;-67
2021/01/11 01:28:03;;;;;;;2.78;2.33;;;;;;;;;;5052323;28;20227;-64
2021/01/11 01:30:30;;;;;;;4.50;2.22;;;;;;;;;;5051471;28;20213;-65
2021/01/11 01:32:56;;;;;;;3.28;1.90;;;;;;;;;;5052021;28;20212;-64
2021/01/11 01:35:23;;;;;;;2.55;1.80;;;;;;;;;;5051174;28;20718;-63
2021/01/11 01:37:49;;;;;;;3.65;1.80;;;;;;;;;;5052104;28;20753;-66
2021/01/11 01:40:15;;;;;;;2.80;1.63;;;;;;;;;;5051454;28;20201;-62
2021/01/11 01:42:41;;;;;;;4.38;1.83;;;;;;;;;;5051963;28;20644;-63
2021/01/11 01:45:08;;;;;;;2.58;1.70;;;;;;;;;;5051284;28;20556;-67
2021/01/11 01:47:34;;;;;;;3.50;1.90;;;;;;;;;;5051811;28;20207;-65
2021/01/11 01:50:03;;;;;;;3.13;1.90;;;;;;;;;;5051315;28;20724;-65
2021/01/11 01:52:30;;;;;;;2.13;1.45;;;;;;;;;;5051573;28;20192;-65
2021/01/11 01:54:57;;;;;;;2.67;1.80;;;;;;;;;;5052416;28;20196;-66
2021/01/11 01:57:23;;;;;;;2.58;1.77;;;;;;;;;;5054262;28;20576;-64
2021/01/11 01:59:49;;;;;;;3.22;1.90;;;;;;;;;;5050982;28;20200;-65
2021/01/11 02:02:18;;;;;;;2.65;1.63;;;;;;;;;;5051275;28;20299;-64
2021/01/11 02:04:44;;;;;;;2.67;1.80;;;;;;;;;;5051089;28;20224;-67
2021/01/11 02:07:13;;;;;;;2.80;1.85;;;;;;;;;;5050921;28;20207;-63
2021/01/11 02:09:42;;;;;;;2.95;2.10;;;;;;;;;;5050712;28;20323;-64
2021/01/11 02:12:15;;;;;;;5.50;2.70;;;;;;;;;;5050880;28;20197;-64
2021/01/11 02:14:47;;;;;;;5.13;2.83;;;;;;;;;;5050304;28;20302;-64
2021/01/11 02:17:16;;;;;;;4.80;3.00;;;;;;;;;;5051025;28;20266;-65
2021/01/11 02:20:08;;;;;;;6.85;3.55;;;;;;;;;;5050554;28;20650;-65
2021/01/11 02:22:53;;;;;;;5.78;3.50;;;;;;;;;;5042592;28;20196;-69
2021/01/11 02:25:37;;;;;;;5.32;3.40;;;;;;;;;;5050209;28;20195;-63
2021/01/11 02:28:08;;;;;;;6.18;3.40;;;;;;;;;;5050971;28;20208;-65
2021/01/11 02:30:36;;;;;;;7.03;3.50;;;;;;;;;;5050204;28;20228;-66
2021/01/11 02:33:11;;;;;;;5.80;3.92;;;;;;;;;;5050768;28;20238;-65
2021/01/11 02:35:57;;;;;;;4.88;3.30;;;;;;;;;;5049719;28;20740;-66
2021/01/11 02:38:24;;;;;;;5.15;3.50;;;;;;;;;;5050430;28;20675;-64
2021/01/11 02:40:50;;;;;;;4.38;3.10;;;;;;;;;;5049913;28;20204;-63
2021/01/11 02:43:17;;;;;;;5.22;3.45;;;;;;;;;;5050838;28;20655;-63
2021/01/11 02:45:43;;;;;;;4.70;3.45;;;;;;;;;;5049919;28;20200;-66
2021/01/11 02:48:20;;;;;;;4.10;3.38;;;;;;;;;;5050266;28;20705;-64
2021/01/11 02:50:59;;;;;;;4.03;3.33;;;;;;;;;;5049883;28;20231;-64
2021/01/11 02:53:28;;;;;;;6.65;3.55;;;;;;;;;;5050572;28;20201;-63
2021/01/11 02:55:56;;;;;;;5.18;3.60;;;;;;;;;;5050131;28;20192;-63
2021/01/11 02:58:40;;;;;;;4.43;3.38;;;;;;;;;;5050723;28;20223;-63
2021/01/11 03:01:09;;;;;;;4.60;3.50;;;;;;;;;;5050141;28;20275;-64
2021/01/11 03:03:35;;;;;;;5.57;3.72;;;;;;;;;;5050427;28;20247;-64
2021/01/11 03:06:02;;;;;;;6.22;3.70;;;;;;;;;;5049627;28;20588;-66
2021/01/11 03:08:28;;;;;;;6.22;4.00;;;;;;;;;;5050032;28;20277;-63
2021/01/11 03:10:54;;;;;;;7.20;4.00;;;;;;;;;;5049624;28;20229;-63
2021/01/11 03:13:20;;;;;;;5.28;3.80;;;;;;;;;;5050168;28;20295;-67
2021/01/11 03:15:46;;;;;;;6.20;4.03;;;;;;;;;;5049549;28;20189;-64
2021/01/11 03:18:13;;;;;;;6.05;3.67;;;;;;;;;;5049808;28;20227;-67
2021/01/11 03:20:39;;;;;;;9.00;4.30;;;;;;;;;;5049598;28;20200;-64
2021/01/11 03:23:06;;;;;;;6.47;3.70;;;;;;;;;;5049880;28;20184;-64
2021/01/11 03:25:32;;;;;;;6.15;4.38;;;;;;;;;;5049390;28;20196;-66
2021/01/11 03:28:00;;;;;;;7.03;4.20;;;;;;;;;;5056891;28;20220;-66
2021/01/11 03:30:26;;;;;;;5.82;4.00;;;;;;;;;;5049704;28;20790;-65
2021/01/11 03:32:52;;;;;;;7.40;5.20;;;;;;;;;;5049664;28;20224;-65
2021/01/11 03:35:18;;;;;;;7.53;5.57;;;;;;;;;;5049023;28;20301;-64
2021/01/11 03:37:45;;;;;;;7.60;5.93;;;;;;;;;;5049777;28;20224;-67
2021/01/11 03:40:12;;;;;;;7.65;5.25;;;;;;;;;;5048832;28;20683;-66
2021/01/11 03:42:38;;;;;;;7.07;5.95;;;;;;;;;;5049608;28;20203;-65
2021/01/11 03:45:05;;;;;;;6.72;5.57;;;;;;;;;;5049194;28;20185;-67
2021/01/11 03:47:32;;;;;;;6.85;5.10;;;;;;;;;;5049655;28;20291;-64
2021/01/11 03:49:58;;;;;;;5.82;4.68;;;;;;;;;;5050305;28;20216;-63
2021/01/11 03:52:43;;;;;;;5.45;4.22;;;;;;;;;;5049862;28;20232;-68
2021/01/11 03:55:09;;;;;;;7.75;4.00;;;;;;;;;;5049378;28;20215;-65
2021/01/11 03:57:36;;;;;;;5.18;3.88;;;;;;;;;;5050380;28;20192;-66
2021/01/11 04:00:04;;;;;;;3.95;3.53;;;;;;;;;;5050229;28;20204;-65
2021/01/11 04:02:31;;;;;;;4.53;3.35;;;;;;;;;;5049932;28;20211;-63
2021/01/11 04:04:58;;;;;;;4.50;3.10;;;;;;;;;;5049173;28;20203;-65
2021/01/11 04:07:24;;;;;;;4.35;2.80;;;;;;;;;;5049212;28;20196;-64
2021/01/11 04:09:50;;;;;;;5.00;3.63;;;;;;;;;;5048693;28;20384;-65
2021/01/11 04:12:16;;;;;;;4.45;3.17;;;;;;;;;;5049510;28;20196;-67
2021/01/11 04:14:42;;;;;;;4.00;2.70;;;;;;;;;;5048938;28;20273;-65
2021/01/11 04:17:09;;;;;;;3.60;2.65;;;;;;;;;;5049414;28;20196;-66
2021/01/11 04:19:35;;;;;;;3.13;2.60;;;;;;;;;;5050262;28;20201;-63
2021/01/11 04:22:01;;;;;;;2.80;1.88;;;;;;;;;;5051005;28;20296;-63
2021/01/11 04:24:28;;;;;;;2.42;1.77;;;;;;;;;;5050695;28;20683;-61
2021/01/11 04:26:54;;;;;;;2.03;1.30;;;;;;;;;;5050114;28;20203;-64
2021/01/11 04:29:20;;;;;;;3.38;1.70;;;;;;;;;;5049626;28;20287;-65
2021/01/11 04:31:47;;;;;;;3.83;1.42;;;;;;;;;;5049687;28;20203;-65
2021/01/11 04:34:14;;;;;;;2.00;1.10;;;;;;;;;;5050985;28;20300;-65
2021/01/11 04:36:41;;;;;;;1.02;0.82;;;;;;;;;;5052693;28;20247;-67
2021/01/11 04:39:07;;;;;;;1.38;0.80;;;;;;;;;;5052520;28;20185;-64
2021/01/11 04:41:34;;;;;;;1.30;0.95;;;;;;;;;;5052590;28;20192;-66
2021/01/11 04:44:02;;;;;;;1.23;1.08;;;;;;;;;;5052472;28;20685;-65
2021/01/11 04:46:29;;;;;;;2.47;1.20;;;;;;;;;;5052849;28;20601;-67
2021/01/11 04:48:55;;;;;;;2.25;1.63;;;;;;;;;;5052182;28;20181;-68
2021/01/11 04:51:21;;;;;;;2.40;1.50;;;;;;;;;;5052014;28;20314;-64
2021/01/11 04:53:50;;;;;;;1.65;1.15;;;;;;;;;;5053078;28;20189;-64
2021/01/11 04:56:16;;;;;;;2.40;1.80;;;;;;;;;;5051857;28;20195;-64
2021/01/11 04:58:56;;;;;;;4.00;3.08;;;;;;;;;;5058405;28;20199;-67
2021/01/11 05:01:24;;;;;;;4.38;3.17;;;;;;;;;;5040786;28;20193;-62
2021/01/11 05:03:51;;;;;;;3.38;2.35;;;;;;;;;;5051993;28;20199;-63
2021/01/11 05:06:18;;;;;;;4.78;2.40;;;;;;;;;;5051328;28;20298;-66
2021/01/11 05:08:45;;;;;;;2.67;2.15;;;;;;;;;;5051521;28;20185;-65
2021/01/11 05:11:11;;;;;;;5.22;2.90;;;;;;;;;;5051415;28;20603;-67
2021/01/11 05:13:38;;;;;;;5.78;3.40;;;;;;;;;;5048112;28;20190;-68
2021/01/11 05:16:14;;;;;;;8.20;5.03;;;;;;;;;;5051442;28;20199;-63
2021/01/11 05:18:41;;;;;;;6.05;4.40;;;;;;;;;;5052072;28;20839;-65
2021/01/11 05:21:08;;;;;;;7.88;4.20;;;;;;;;;;5051615;28;20204;-64
2021/01/11 05:23:35;;;;;;;4.95;3.13;;;;;;;;;;5052014;28;20197;-63
2021/01/11 05:26:12;;;;;;;5.25;3.25;;;;;;;;;;5051176;28;20698;-64
2021/01/11 05:28:39;;;;;;;4.57;3.25;;;;;;;;;;5050817;28;20663;-65
2021/01/11 05:31:06;;;;;;;9.48;4.55;;;;;;;;;;5051055;28;20224;-63
2021/01/11 05:33:33;;;;;;;6.75;4.30;;;;;;;;;;5051444;28;20199;-65
2021/01/11 05:36:03;;;;;;;9.73;4.68;;;;;;;;;;5050774;28;20290;-66
2021/01/11 05:38:43;;;;;;;7.13;4.13;;;;;;;;;;5051392;28;20204;-63
2021/01/11 05:41:16;;;;;;;9.02;4.22;;;;;;;;;;5050764;28;20196;-63
2021/01/11 05:43:44;;;;;;;5.47;3.50;;;;;;;;;;5050773;28;20233;-64
2021/01/11 05:46:28;;;;;;;5.78;3.28;;;;;;;;;;5050779;28;20200;-63
2021/01/11 05:48:58;;;;;;;5.07;2.90;;;;;;;;;;5051114;28;20216;-66
2021/01/11 05:51:25;;;;;;;4.28;2.72;;;;;;;;;;5050544;28;20240;-67
2021/01/11 05:53:52;;;;;;;4.43;2.20;;;;;;;;;;5049797;28;20227;-65
2021/01/11 05:56:18;;;;;;;13.88;9.50;;;;;;;;;;5049717;28;20698;-64
2021/01/11 05:59:03;;;;;;;10.80;7.90;;;;;;;;;;5050689;28;20290;-65
2021/01/11 06:01:30;;;;;;;13.50;8.27;;;;;;;;;;5051130;28;20215;-64
2021/01/11 06:04:05;;;;;;;6.75;4.10;;;;;;;;;;5050671;28;20292;-66
2021/01/11 06:06:32;;;;;;;3.88;2.85;;;;;;;;;;5050885;28;20204;-63
2021/01/11 06:08:58;;;;;;;2.80;2.00;;;;;;;;;;5050435;28;20212;-63
2021/01/11 06:11:25;;;;;;;2.75;1.80;;;;;;;;;;5051156;28;20718;-64
2021/01/11 06:13:52;;;;;;;6.15;2.92;;;;;;;;;;5050320;28;20215;-64
2021/01/11 06:16:20;;;;;;;7.53;3.92;;;;;;;;;;5050329;28;20196;-68
2021/01/11 06:18:49;;;;;;;9.77;7.47;;;;;;;;;;5050423;28;20287;-63
2021/01/11 06:21:17;;;;;;;26.27;18.15;;;;;;;;;;5050206;28;21203;-69
2021/01/11 06:23:43;;;;;;;10.55;6.68;;;;;;;;;;5049519;28;20201;-67
2021/01/11 06:26:25;;;;;;;4.28;2.88;;;;;;;;;;5050092;28;20196;-63
2021/01/11 06:28:51;;;;;;;3.10;2.17;;;;;;;;;;5051993;28;20176;-65
2021/01/11 06:31:18;;;;;;;4.25;2.42;;;;;;;;;;5053171;28;20230;-64
2021/01/11 06:33:45;;;;;;;4.82;2.33;;;;;;;;;;5050546;28;20266;-64
2021/01/11 06:36:21;;;;;;;4.80;2.65;;;;;;;;;;5049706;28;20232;-64
2021/01/11 06:38:48;;;;;;;4.05;2.70;;;;;;;;;;5050150;28;20295;-65
2021/01/11 06:41:16;;;;;;;3.50;2.63;;;;;;;;;;5047144;28;20208;-62
2021/01/11 06:43:43;;;;;;;7.00;4.10;;;;;;;;;;5047885;28;20643;-65
2021/01/11 06:46:13;;;;;;;7.05;4.25;;;;;;;;;;5047392;28;20266;-64
2021/01/11 06:48:40;;;;;;;7.18;3.90;;;;;;;;;;5047905;28;20201;-67
2021/01/11 06:51:10;;;;;;;8.68;4.43;;;;;;;;;;5048179;28;20220;-63
2021/01/11 06:53:37;;;;;;;7.78;4.00;;;;;;;;;;5050308;28;20208;-65
2021/01/11 06:56:07;;;;;;;5.75;3.60;;;;;;;;;;5049695;28;20200;-64
2021/01/11 06:58:34;;;;;;;6.30;4.00;;;;;;;;;;5051140;28;20192;-62
2021/01/11 07:01:02;;;;;;;6.40;4.22;;;;;;;;;;5050972;28;20311;-65
2021/01/11 07:03:48;;;;;;;8.57;4.85;;;;;;;;;;5050780;28;20224;-66
2021/01/11 07:06:33;;;;;;;7.80;5.00;;;;;;;;;;5049640;28;20282;-66
2021/01/11 07:09:05;;;;;;;9.90;6.25;;;;;;;;;;5050247;28;20329;-63
2021/01/11 07:11:35;;;;;;;8.88;5.20;;;;;;;;;;5050239;28;20219;-65
2021/01/11 07:14:02;;;;;;;10.02;5.65;;;;;;;;;;5049836;28;20196;-63
2021/01/11 07:16:38;;;;;;;13.10;7.38;;;;;;;;;;5050093;28;20638;-62
2021/01/11 07:19:05;;;;;;;8.07;4.97;;;;;;;;;;5049277;28;20215;-66
2021/01/11 07:21:31;;;;;;;12.73;5.80;;;;;;;;;;5050425;28;20192;-66
2021/01/11 07:23:59;;;;;;;16.27;9.30;;;;;;;;;;5049772;28;20227;-63
2021/01/11 07:26:26;;;;;;;11.20;6.22;;;;;;;;;;5050036;28;20207;-66
2021/01/11 07:28:55;;;;;;;7.53;4.65;;;;;;;;;;5050004;28;20220;-63
2021/01/11 07:31:22;;;;;;;7.47;4.60;;;;;;;;;;5049398;28;20262;-64
2021/01/11 07:34:03;;;;;;;6.03;4.10;;;;;;;;;;5050342;28;20261;-65
2021/01/11 07:36:42;;;;;;;6.82;3.58;;;;;;;;;;5049774;28;20668;-64
2021/01/11 07:39:12;;;;;;;28.75;13.10;;;;;;;;;;5049106;28;20301;-64
2021/01/11 07:41:39;;;;;;;17.27;11.85;;;;;;;;;;5050206;28;20591;-64
2021/01/11 07:44:09;;;;;;;23.95;15.20;;;;;;;;;;5049818;28;20262;-65
2021/01/11 07:46:36;;;;;;;22.33;16.17;;;;;;;;;;5049803;28;20196;-67
2021/01/11 07:49:12;;;;;;;36.22;20.42;;;;;;;;;;5049310;28;20257;-65
2021/01/11 07:51:39;;;;;;;38.80;22.52;;;;;;;;;;5049785;28;20228;-66
2021/01/11 07:54:09;;;;;;;29.45;20.50;;;;;;;;;;5049540;28;20200;-63
2021/01/11 07:56:35;;;;;;;29.92;19.75;;;;;;;;;;5050032;28;20279;-66
2021/01/11 07:59:05;;;;;;;32.20;20.90;;;;;;;;;;5051365;28;20566;-67
2021/01/11 08:01:39;;;;;;;31.67;21.27;;;;;;;;;;5050875;28;20288;-66
2021/01/11 08:04:05;;;;;;;31.92;21.08;;;;;;;;;;5049516;28;20307;-68
2021/01/11 08:06:52;;;;;;;38.28;24.00;;;;;;;;;;5049565;28;20192;-65
2021/01/11 08:09:23;;;;;;;47.83;30.35;;;;;;;;;;5047207;28;20200;-66
2021/01/11 08:11:49;;;;;;;67.32;46.90;;;;;;;;;;5053449;28;20652;-64
2021/01/11 08:14:16;;;;;;;46.92;29.83;;;;;;;;;;5053231;28;20659;-65
2021/01/11 08:16:44;;;;;;;49.65;31.23;;;;;;;;;;5053485;28;20187;-64
2021/01/11 08:19:10;;;;;;;51.45;31.23;;;;;;;;;;5053042;28;20264;-68
2021/01/11 08:21:39;;;;;;;48.10;29.83;;;;;;;;;;5053316;28;20196;-65
2021/01/11 08:24:06;;;;;;;52.53;32.28;;;;;;;;;;5052698;28;20275;-67
2021/01/11 08:26:34;;;;;;;52.83;31.70;;;;;;;;;;5053126;28;20201;-68
2021/01/11 08:29:00;;;;;;;57.00;35.40;;;;;;;;;;5052864;28;20200;-67
2021/01/11 08:31:27;;;;;;;39.13;25.73;;;;;;;;;;5052785;28;20228;-66
2021/01/11 08:33:55;;;;;;;40.00;24.80;;;;;;;;;;5053356;28;20646;-64
2021/01/11 08:36:23;;;;;;;42.58;25.02;;;;;;;;;;5052129;28;20232;-65
2021/01/11 08:39:08;;;;;;;53.42;32.88;;;;;;;;;;5053154;28;20203;-65
2021/01/11 08:41:36;;;;;;;51.88;31.52;;;;;;;;;;5053515;28;20204;-65
2021/01/11 08:44:02;;;;;;;50.25;29.55;;;;;;;;;;5052447;28;20199;-66
2021/01/11 08:46:47;;;;;;;45.80;27.48;;;;;;;;;;5052990;28;20199;-64
2021/01/11 08:49:13;;;;;;;38.58;25.23;;;;;;;;;;5052429;28;20204;-67
2021/01/11 08:51:39;;;;;;;41.60;26.45;;;;;;;;;;5053008;28;20243;-66
2021/01/11 08:54:06;;;;;;;57.10;33.25;;;;;;;;;;5052311;28;20914;-66
2021/01/11 08:56:35;;;;;;;75.60;42.75;;;;;;;;;;5052694;28;20199;-66
2021/01/11 08:59:03;;;;;;;62.65;35.00;;;;;;;;;;5052497;28;20295;-65
2021/01/11 09:01:34;;;;;;;61.10;34.22;;;;;;;;;;5052895;28;20200;-65
2021/01/11 09:04:02;;;;;;;76.13;40.92;;;;;;;;;;5052188;28;20614;-68
2021/01/11 09:06:35;;;;;;;35.90;23.42;;;;;;;;;;5052401;28;20197;-68
2021/01/11 09:09:15;;;;;;;29.80;19.15;;;;;;;;;;5051077;28;20254;-65
2021/01/11 09:11:42;;;;;;;29.10;19.15;;;;;;;;;;5052246;28;20235;-65
2021/01/11 09:14:12;;;;;;;26.60;18.52;;;;;;;;;;5051734;28;20196;-67
2021/01/11 09:16:39;;;;;;;27.48;19.33;;;;;;;;;;5052381;28;20196;-62
2021/01/11 09:19:15;;;;;;;28.48;18.20;;;;;;;;;;5051482;28;20250;-65
2021/01/11 09:21:44;;;;;;;23.23;17.13;;;;;;;;;;5052289;28;20192;-64
2021/01/11 09:24:11;;;;;;;29.13;17.90;;;;;;;;;;5052044;28;20211;-65
2021/01/11 09:26:39;;;;;;;25.42;16.60;;;;;;;;;;5052539;28;20254;-69
2021/01/11 09:29:06;;;;;;;30.73;19.23;;;;;;;;;;5052562;28;20208;-63
2021/01/11 09:31:33;;;;;;;26.25;17.55;;;;;;;;;;5053925;28;20693;-66
2021/01/11 09:34:01;;;;;;;24.25;16.42;;;;;;;;;;5051647;28;20203;-64
2021/01/11 09:36:34;;;;;;;26.75;16.77;;;;;;;;;;5051528;28;20324;-64
2021/01/11 09:39:00;;;;;;;25.05;16.38;;;;;;;;;;5051713;28;20196;-66
2021/01/11 09:41:26;;;;;;;26.60;17.70;;;;;;;;;;5051785;28;20685;-66
2021/01/11 09:43:53;;;;;;;24.10;16.73;;;;;;;;;;5051950;28;20189;-61
2021/01/11 09:46:19;;;;;;;24.20;16.60;;;;;;;;;;5051025;28;20193;-64
2021/01/11 09:48:46;;;;;;;28.77;17.13;;;;;;;;;;5051788;28;20197;-67
2021/01/11 09:51:12;;;;;;;23.27;16.77;;;;;;;;;;5051340;28;20716;-63
2021/01/11 09:53:38;;;;;;;24.50;17.25;;;;;;;;;;5051789;28;20215;-65
2021/01/11 09:56:04;;;;;;;27.02;17.63;;;;;;;;;;5051017;28;20567;-66
2021/01/11 09:58:31;;;;;;;29.02;17.88;;;;;;;;;;5051339;28;20199;-68
2021/01/11 10:00:58;;;;;;;22.45;16.55;;;;;;;;;;5051397;28;20201;-63
2021/01/11 10:03:24;;;;;;;23.48;16.10;;;;;;;;;;5051570;28;20295;-64
2021/01/11 10:05:57;;;;;;;37.95;22.73;;;;;;;;;;5050987;28;20279;-64
2021/01/11 10:08:23;;;;;;;35.35;23.63;;;;;;;;;;5051265;28;20196;-66
2021/01/11 10:10:49;;;;;;;39.33;24.98;;;;;;;;;;5050649;28;20220;-67
2021/01/11 10:13:15;;;;;;;39.38;26.75;;;;;;;;;;5051742;28;20196;-67
2021/01/11 10:15:42;;;;;;;41.13;27.67;;;;;;;;;;5050610;28;20200;-66
2021/01/11 10:18:08;;;;;;;40.47;27.98;;;;;;;;;;5051355;28;20574;-65
2021/01/11 10:20:34;;;;;;;36.30;25.48;;;;;;;;;;5050563;28;20212;-66
2021/01/11 10:23:00;;;;;;;39.17;26.75;;;;;;;;;;5051163;28;20786;-66
2021/01/11 10:25:27;;;;;;;40.17;27.48;;;;;;;;;;5051145;28;20192;-67
2021/01/11 10:27:55;;;;;;;42.50;29.95;;;;;;;;;;5050880;28;20232;-69
2021/01/11 10:30:21;;;;;;;46.42;30.60;;;;;;;;;;5050248;28;20690;-66
2021/01/11 10:32:47;;;;;;;49.33;32.63;;;;;;;;;;5050308;28;20181;-64
2021/01/11 10:35:14;;;;;;;49.65;32.85;;;;;;;;;;5050625;28;20622;-64
2021/01/11 10:37:41;;;;;;;46.47;31.40;;;;;;;;;;5050723;28;20208;-65
2021/01/11 10:40:08;;;;;;;46.70;31.92;;;;;;;;;;5050018;28;20658;-68
2021/01/11 10:42:34;;;;;;;45.45;30.30;;;;;;;;;;5050860;28;20188;-62
2021/01/11 10:45:01;;;;;;;44.95;30.20;;;;;;;;;;5050505;28;20222;-64
2021/01/11 10:47:27;;;;;;;44.70;30.85;;;;;;;;;;5050609;28;20211;-67
2021/01/11 10:49:53;;;;;;;48.90;31.38;;;;;;;;;;5049768;28;20287;-64
2021/01/11 10:52:19;;;;;;;50.30;32.38;;;;;;;;;;5050816;28;20204;-66
2021/01/11 10:54:46;;;;;;;48.60;31.95;;;;;;;;;;5050407;28;20678;-67
2021/01/11 10:57:12;;;;;;;49.33;32.58;;;;;;;;;;5050922;28;20200;-68
2021/01/11 10:59:39;;;;;;;46.92;31.88;;;;;;;;;;5050691;28;20181;-64
2021/01/11 11:02:07;;;;;;;52.17;33.63;;;;;;;;;;5052337;28;20559;-66
2021/01/11 11:04:33;;;;;;;50.08;33.58;;;;;;;;;;5049858;28;20257;-67
2021/01/11 11:06:59;;;;;;;40.95;28.15;;;;;;;;;;5050160;28;20443;-65
2021/01/11 11:09:27;;;;;;;37.70;26.35;;;;;;;;;;5050052;28;20191;-65
2021/01/11 11:11:53;;;;;;;38.58;26.55;;;;;;;;;;5050377;28;20216;-64
2021/01/11 11:14:20;;;;;;;36.97;24.63;;;;;;;;;;5049954;28;20211;-67
2021/01/11 11:16:46;;;;;;;32.53;21.42;;;;;;;;;;5050239;28;20254;-64
2021/01/11 11:19:13;;;;;;;18.77;13.18;;;;;;;;;;5049851;28;20192;-68
2021/01/11 11:21:39;;;;;;;14.00;10.30;;;;;;;;;;5050331;28;20665;-66
2021/01/11 11:24:15;;;;;;;12.40;8.23;;;;;;;;;;5049670;28;20204;-67
2021/01/11 11:26:42;;;;;;;13.25;7.78;;;;;;;;;;5050134;28;20185;-64
2021/01/11 11:29:09;;;;;;;12.48;8.10;;;;;;;;;;5049595;28;20545;-64
2021/01/11 11:31:38;;;;;;;10.75;7.75;;;;;;;;;;5050314;28;20294;-67
2021/01/11 11:34:24;;;;;;;14.68;8.60;;;;;;;;;;5049983;28;20198;-65
2021/01/11 11:36:53;;;;;;;14.02;9.05;;;;;;;;;;5050717;28;20632;-65
2021/01/11 11:39:20;;;;;;;12.65;8.57;;;;;;;;;;5051085;28;20277;-68
2021/01/11 11:41:46;;;;;;;11.65;8.30;;;;;;;;;;5051748;28;20283;-66
2021/01/11 11:44:12;;;;;;;13.30;8.82;;;;;;;;;;5038027;28;20230;-65
2021/01/11 11:46:39;;;;;;;13.48;9.60;;;;;;;;;;5056532;28;20196;-67
2021/01/11 11:49:05;;;;;;;13.23;9.05;;;;;;;;;;5056403;28;20212;-64
2021/01/11 11:51:32;;;;;;;13.93;10.18;;;;;;;;;;5056295;28;20775;-66
2021/01/11 11:53:58;;;;;;;10.23;7.43;;;;;;;;;;5056539;28;20199;-65
2021/01/11 11:56:24;;;;;;;11.52;8.60;;;;;;;;;;5056044;28;20204;-66
2021/01/11 11:58:50;;;;;;;12.40;9.27;;;;;;;;;;5056499;28;20184;-67
2021/01/11 12:01:20;;;;;;;14.55;10.27;;;;;;;;;;5056060;28;20195;-69
2021/01/11 12:03:46;;;;;;;14.23;10.80;;;;;;;;;;5056871;28;20192;-67
2021/01/11 12:06:13;;;;;;;14.48;9.40;;;;;;;;;;5055660;28;20196;-67
2021/01/11 12:08:39;;;;;;;12.10;8.82;;;;;;;;;;5056859;28;20192;-66
2021/01/11 12:11:05;;;;;;;12.45;9.48;;;;;;;;;;5056464;28;20224;-66
2021/01/11 12:13:31;;;;;;;16.08;10.65;;;;;;;;;;5056750;28;20293;-65
2021/01/11 12:15:57;;;;;;;12.77;9.43;;;;;;;;;;5055867;28;20201;-64
2021/01/11 12:18:24;;;;;;;14.25;9.48;;;;;;;;;;5056344;28;20192;-65
2021/01/11 12:20:50;;;;;;;12.85;9.27;;;;;;;;;;5056463;28;20196;-64
2021/01/11 12:23:16;;;;;;;15.88;9.65;;;;;;;;;;5057539;28;20275;-66
2021/01/11 12:25:44;;;;;;;12.32;9.82;;;;;;;;;;5055661;28;20212;-65
2021/01/11 12:28:10;;;;;;;16.75;11.77;;;;;;;;;;5056376;28;20271;-64
2021/01/11 12:30:37;;;;;;;15.23;11.75;;;;;;;;;;5057215;28;20216;-67
2021/01/11 12:33:03;;;;;;;18.70;13.18;;;;;;;;;;5057160;28;20204;-63
2021/01/11 12:35:29;;;;;;;17.58;12.75;;;;;;;;;;5055458;28;20236;-70
2021/01/11 12:37:55;;;;;;;15.55;11.95;;;;;;;;;;5055863;28;20560;-66
2021/01/11 12:40:22;;;;;;;15.98;11.40;;;;;;;;;;5055919;28;20192;-67
2021/01/11 12:42:48;;;;;;;20.40;12.15;;;;;;;;;;5056385;28;20200;-63
2021/01/11 12:45:15;;;;;;;14.90;10.95;;;;;;;;;;5056098;28;20201;-69
2021/01/11 12:47:41;;;;;;;13.20;9.50;;;;;;;;;;5055865;28;20711;-64
2021/01/11 12:50:07;;;;;;;11.98;8.63;;;;;;;;;;5055568;28;20197;-66
2021/01/11 12:52:34;;;;;;;13.05;9.80;;;;;;;;;;5056236;28;20278;-67
2021/01/11 12:55:01;;;;;;;10.80;7.55;;;;;;;;;;5052762;28;20212;-66
2021/01/11 12:57:31;;;;;;;8.70;6.55;;;;;;;;;;5052674;28;20203;-68
2021/01/11 12:59:57;;;;;;;7.57;5.72;;;;;;;;;;5052695;28;20209;-69
2021/01/11 13:02:23;;;;;;;8.40;6.63;;;;;;;;;;5053232;28;20572;-67
2021/01/11 13:04:50;;;;;;;10.20;6.55;;;;;;;;;;5052275;28;20291;-63
2021/01/11 13:07:16;;;;;;;9.77;6.70;;;;;;;;;;5052466;28;20275;-64
2021/01/11 13:09:43;;;;;;;8.90;6.85;;;;;;;;;;5051957;28;20215;-67
2021/01/11 13:12:10;;;;;;;8.60;6.50;;;;;;;;;;5052597;28;20725;-70
2021/01/11 13:14:36;;;;;;;7.75;5.97;;;;;;;;;;5052054;28;20322;-63
2021/01/11 13:17:02;;;;;;;9.10;6.40;;;;;;;;;;5052181;28;20196;-64
2021/01/11 13:19:46;;;;;;;8.05;6.28;;;;;;;;;;5051962;28;20664;-64
2021/01/11 13:22:12;;;;;;;9.00;6.45;;;;;;;;;;5052186;28;20732;-68
2021/01/11 13:24:39;;;;;;;10.90;6.85;;;;;;;;;;5052472;28;20197;-67
2021/01/11 13:27:06;;;;;;;9.10;7.22;;;;;;;;;;5054105;28;20287;-64
2021/01/11 13:29:33;;;;;;;12.50;8.30;;;;;;;;;;5053842;28;20196;-65
2021/01/11 13:31:59;;;;;;;11.20;8.10;;;;;;;;;;5053113;28;20263;-63
2021/01/11 13:34:25;;;;;;;11.73;8.43;;;;;;;;;;5051504;28;20189;-68
2021/01/11 13:36:55;;;;;;;12.13;8.88;;;;;;;;;;5052511;28;20231;-69
2021/01/11 13:39:21;;;;;;;14.00;9.50;;;;;;;;;;5052078;28;20215;-66
2021/01/11 13:41:48;;;;;;;15.68;10.55;;;;;;;;;;5052234;28;20239;-65
2021/01/11 13:44:16;;;;;;;14.88;10.45;;;;;;;;;;5051540;28;20219;-64
2021/01/11 13:46:46;;;;;;;17.90;11.05;;;;;;;;;;5051849;28;20199;-65
2021/01/11 13:49:15;;;;;;;13.85;10.02;;;;;;;;;;5051137;28;20192;-66
2021/01/11 13:51:42;;;;;;;15.10;10.45;;;;;;;;;;5051934;28;20228;-66
2021/01/11 13:54:09;;;;;;;14.45;10.70;;;;;;;;;;5051146;28;20192;-68
2021/01/11 13:56:35;;;;;;;16.02;11.00;;;;;;;;;;5051693;28;20196;-63
2021/01/11 13:59:06;;;;;;;14.13;9.60;;;;;;;;;;5051150;28;20200;-64
2021/01/11 14:01:42;;;;;;;11.90;8.90;;;;;;;;;;5052585;28;20254;-68
2021/01/11 14:04:11;;;;;;;18.60;11.20;;;;;;;;;;5049618;28;20288;-65
2021/01/11 14:06:38;;;;;;;14.15;10.52;;;;;;;;;;5050059;28;20198;-64
2021/01/11 14:09:05;;;;;;;14.38;10.32;;;;;;;;;;5051043;28;20201;-66
2021/01/11 14:11:31;;;;;;;13.13;9.07;;;;;;;;;;5051291;28;20252;-65
2021/01/11 14:13:58;;;;;;;13.65;9.20;;;;;;;;;;5050774;28;20683;-67
2021/01/11 14:16:27;;;;;;;12.75;10.02;;;;;;;;;;5050849;28;20192;-64
2021/01/11 14:18:55;;;;;;;12.18;8.20;;;;;;;;;;5051267;28;20232;-65
2021/01/11 14:21:23;;;;;;;15.02;10.27;;;;;;;;;;5050750;28;20196;-68
2021/01/11 14:23:49;;;;;;;16.17;10.18;;;;;;;;;;5050548;28;20254;-63
2021/01/11 14:26:16;;;;;;;15.23;11.15;;;;;;;;;;5050148;28;20197;-63
2021/01/11 14:28:43;;;;;;;18.95;11.45;;;;;;;;;;5050888;28;20193;-68
2021/01/11 14:31:09;;;;;;;17.95;11.15;;;;;;;;;;5048802;28;20618;-66
2021/01/11 14:33:37;;;;;;;14.90;10.35;;;;;;;;;;5050997;28;20215;-66
2021/01/11 14:36:03;;;;;;;16.30;10.85;;;;;;;;;;5050257;28;20319;-66
2021/01/11 14:38:30;;;;;;;16.75;11.50;;;;;;;;;;5051020;28;20964;-67